Time;durP1;ratioP1;P1;durP2;ratioP2;P2;SDS_P1;SDS_P2;PMS_P1;PMS_P2;Temp;Humidity;BMP_temperature;BMP_pressure;BME280_temperature;BME280_humidity;BME280_pressure;Samples;Min_cycle;Max_cycle;Signal;HPM_P1;HPM_P2
2022/01/15 00:00:17;;;;;;;2.20;1.20;;;20.20;54.20;;;;;;5036251;28;20124;-60
2022/01/15 00:02:42;;;;;;;3.85;1.17;;;20.20;54.20;;;;;;5036524;28;20045;-59
2022/01/15 00:05:08;;;;;;;3.75;1.20;;;20.10;54.10;;;;;;5035595;28;20042;-59
2022/01/15 00:07:34;;;;;;;2.17;1.00;;;20.20;54.10;;;;;;5035983;28;20144;-59
2022/01/15 00:10:00;;;;;;;2.47;1.30;;;20.20;54.10;;;;;;5036522;28;20049;-60
2022/01/15 00:12:25;;;;;;;2.25;1.13;;;20.20;54.10;;;;;;5017695;28;20054;-59
2022/01/15 00:14:52;;;;;;;3.78;1.45;;;20.20;54.10;;;;;;5036297;28;20045;-60
2022/01/15 00:17:31;;;;;;;2.60;1.27;;;20.20;54.00;;;;;;5035932;28;20077;-60
2022/01/15 00:19:57;;;;;;;2.88;1.30;;;20.10;54.00;;;;;;5035765;28;20164;-59
2022/01/15 00:22:22;;;;;;;2.50;1.40;;;20.10;54.00;;;;;;5036060;28;20140;-59
2022/01/15 00:24:48;;;;;;;4.07;1.20;;;20.10;53.90;;;;;;5036389;28;20082;-59
2022/01/15 00:27:13;;;;;;;4.00;1.80;;;20.10;53.90;;;;;;5035158;28;20046;-59
2022/01/15 00:29:39;;;;;;;3.58;1.63;;;20.00;53.90;;;;;;5036080;28;20033;-59
2022/01/15 00:32:05;;;;;;;4.22;2.15;;;20.10;53.90;;;;;;5035367;28;20049;-59
2022/01/15 00:34:31;;;;;;;4.13;1.73;;;20.10;53.90;;;;;;5035465;28;20041;-60
2022/01/15 00:36:57;;;;;;;5.30;2.03;;;20.00;53.80;;;;;;5035811;28;20103;-60
2022/01/15 00:39:23;;;;;;;4.78;1.83;;;20.10;53.80;;;;;;5035068;28;20037;-59
2022/01/15 00:41:49;;;;;;;3.70;1.73;;;20.00;53.80;;;;;;5035952;28;20067;-59
2022/01/15 00:44:14;;;;;;;6.05;2.20;;;20.10;53.80;;;;;;5035357;28;20403;-59
2022/01/15 00:46:40;;;;;;;5.22;2.13;;;20.00;53.70;;;;;;5034913;28;20041;-59
2022/01/15 00:49:05;;;;;;;4.63;2.00;;;20.00;53.70;;;;;;5035865;28;20550;-59
2022/01/15 00:51:31;;;;;;;4.47;2.10;;;20.00;53.80;;;;;;5017768;28;20053;-60
2022/01/15 00:53:56;;;;;;;4.28;2.20;;;20.00;53.80;;;;;;5035061;28;20049;-60
2022/01/15 00:56:22;;;;;;;4.10;2.08;;;19.90;53.70;;;;;;5035290;28;20084;-60
2022/01/15 00:58:47;;;;;;;5.43;2.20;;;19.90;53.70;;;;;;5035190;28;20060;-59
2022/01/15 01:01:13;;;;;;;4.40;1.98;;;19.90;53.70;;;;;;5034681;28;20081;-59
2022/01/15 01:03:38;;;;;;;5.13;2.20;;;20.00;53.70;;;;;;5034906;28;20045;-59
2022/01/15 01:06:04;;;;;;;4.40;2.20;;;20.00;53.70;;;;;;5034969;28;20037;-59
2022/01/15 01:08:29;;;;;;;5.35;2.67;;;19.90;53.70;;;;;;5034247;28;20052;-59
2022/01/15 01:10:59;;;;;;;7.55;2.40;;;19.90;53.70;;;;;;5035423;28;20124;-59
2022/01/15 01:24:23;;;;;;;6.07;2.35;;;19.90;53.70;;;;;;5034607;28;20092;-59
2022/01/15 01:27:06;;;;;;;5.47;2.10;;;19.90;53.70;;;;;;5017262;28;20083;-59
2022/01/15 01:32:37;;;;;;;5.40;2.13;;;19.80;53.60;;;;;;5034731;28;20382;-59
2022/01/15 01:35:08;;;;;;;5.35;2.60;;;19.80;53.60;;;;;;5034672;28;20071;-60
2022/01/15 01:37:39;;;;;;;5.13;2.45;;;19.80;53.50;;;;;;5016123;28;20084;-59
2022/01/15 01:40:20;;;;;;;5.47;2.10;;;19.80;53.50;;;;;;5034864;28;20048;-59
2022/01/15 01:42:57;;;;;;;5.82;2.75;;;19.80;53.50;;;;;;5034239;28;20045;-59
2022/01/15 01:45:23;;;;;;;4.27;1.90;;;19.80;53.50;;;;;;5034534;28;20065;-59
2022/01/15 01:47:48;;;;;;;4.32;2.03;;;19.80;53.60;;;;;;5034954;28;20041;-59
2022/01/15 01:50:19;;;;;;;4.60;2.08;;;19.80;53.50;;;;;;5033847;28;20042;-60
2022/01/15 01:52:46;;;;;;;4.63;2.10;;;19.80;53.50;;;;;;5034836;28;20045;-59
2022/01/15 01:55:12;;;;;;;5.38;2.25;;;19.80;53.50;;;;;;5034382;28;20198;-60
2022/01/15 01:57:38;;;;;;;4.63;2.15;;;19.80;53.50;;;;;;5033656;28;20038;-60
2022/01/15 02:00:07;;;;;;;6.55;2.15;;;19.70;53.50;;;;;;5034064;28;20049;-59
2022/01/15 02:02:32;;;;;;;3.75;2.33;;;19.80;53.50;;;;;;5033851;28;20902;-59
2022/01/15 02:04:58;;;;;;;5.65;2.30;;;19.80;53.40;;;;;;5033703;28;20121;-60
2022/01/15 02:07:25;;;;;;;3.83;2.00;;;19.70;53.30;;;;;;5033909;28;20045;-59
2022/01/15 02:09:51;;;;;;;3.90;1.90;;;19.70;53.30;;;;;;5034584;28;20041;-59
2022/01/15 02:12:17;;;;;;;3.83;1.70;;;19.70;53.40;;;;;;5015122;28;20133;-59
2022/01/15 02:14:42;;;;;;;4.57;1.98;;;19.70;53.40;;;;;;5033892;28;20576;-59
2022/01/15 02:17:08;;;;;;;3.40;1.80;;;19.70;53.40;;;;;;5033245;28;20052;-60
2022/01/15 02:19:34;;;;;;;4.57;1.85;;;19.70;53.30;;;;;;5033185;28;20045;-59
2022/01/15 02:24:44;;;;;;;3.92;1.67;;;19.70;53.30;;;;;;5033024;28;20864;-60
2022/01/15 02:27:09;;;;;;;3.85;1.73;;;19.70;53.30;;;;;;5033968;28;20053;-59
2022/01/15 02:29:35;;;;;;;3.60;1.60;;;19.70;53.30;;;;;;5033726;28;20041;-59
2022/01/15 02:32:00;;;;;;;3.60;1.48;;;19.60;53.30;;;;;;5033288;28;20072;-60
2022/01/15 02:34:26;;;;;;;3.63;1.55;;;19.70;53.30;;;;;;5033332;28;20204;-59
2022/01/15 02:36:51;;;;;;;3.92;1.98;;;19.70;53.30;;;;;;5034122;28;20046;-59
2022/01/15 02:39:17;;;;;;;3.78;1.70;;;19.70;53.30;;;;;;5032473;28;20042;-59
2022/01/15 02:41:42;;;;;;;3.42;1.55;;;19.70;53.30;;;;;;5033751;28;20041;-59
2022/01/15 02:44:15;;;;;;;3.67;1.85;;;19.70;53.30;;;;;;5033655;28;20136;-59
2022/01/15 02:49:15;;;;;;;3.90;1.55;;;19.70;53.30;;;;;;5033030;28;20453;-59
2022/01/15 02:51:41;;;;;;;2.70;1.52;;;19.70;53.30;;;;;;5033691;28;20084;-59
2022/01/15 02:54:06;;;;;;;3.33;1.50;;;19.70;54.00;;;;;;5032690;28;20511;-59
2022/01/15 02:56:35;;;;;;;3.85;1.60;;;19.70;53.30;;;;;;5032844;28;20065;-59
2022/01/15 02:59:03;;;;;;;3.05;1.35;;;19.70;53.30;;;;;;5032419;28;20045;-59
2022/01/15 03:01:28;;;;;;;4.20;1.63;;;19.70;53.30;;;;;;5031561;28;20374;-59
2022/01/15 03:03:54;;;;;;;3.35;1.40;;;19.80;53.40;;;;;;5032620;28;20042;-59
2022/01/15 03:06:20;;;;;;;3.35;1.45;;;19.80;53.30;;;;;;5032177;28;20163;-59
2022/01/15 03:08:46;;;;;;;3.15;1.48;;;19.80;53.20;;;;;;5031789;28;20049;-59
2022/01/15 03:11:12;;;;;;;2.30;1.20;;;19.80;53.30;;;;;;5033147;28;20033;-59
2022/01/15 03:13:38;;;;;;;3.25;1.35;;;19.80;53.30;;;;;;5032654;28;20115;-59
2022/01/15 03:16:05;;;;;;;2.90;1.42;;;19.80;53.20;;;;;;5032935;28;20045;-59
2022/01/15 03:18:31;;;;;;;2.58;1.40;;;19.80;53.20;;;;;;5015010;28;20432;-59
2022/01/15 03:20:56;;;;;;;3.63;1.30;;;19.80;53.20;;;;;;5031944;28;20531;-59
2022/01/15 03:23:22;;;;;;;3.25;1.30;;;19.80;53.20;;;;;;5032742;28;20053;-59
2022/01/15 03:25:47;;;;;;;3.78;1.40;;;19.80;53.20;;;;;;5015031;28;20045;-59
2022/01/15 03:28:13;;;;;;;2.85;1.13;;;19.90;53.20;;;;;;5031420;28;20060;-59
2022/01/15 03:30:38;;;;;;;3.63;1.42;;;19.90;53.20;;;;;;5033058;28;20080;-59
2022/01/15 03:33:04;;;;;;;2.58;1.17;;;19.90;53.20;;;;;;5032924;28;20080;-59
2022/01/15 03:35:30;;;;;;;2.10;1.05;;;19.90;53.20;;;;;;5031603;28;20088;-59
2022/01/15 03:37:55;;;;;;;2.10;1.10;;;19.90;53.20;;;;;;5032915;28;20046;-59
2022/01/15 03:40:21;;;;;;;3.70;1.30;;;20.00;53.20;;;;;;5032341;28;20122;-59
2022/01/15 03:42:46;;;;;;;2.83;1.10;;;19.90;53.10;;;;;;5031804;28;20050;-59
2022/01/15 03:45:13;;;;;;;2.88;1.10;;;20.00;53.20;;;;;;5032426;28;20615;-59
2022/01/15 03:47:39;;;;;;;2.50;1.00;;;19.90;53.10;;;;;;5032648;28;20041;-59
2022/01/15 03:50:05;;;;;;;2.22;0.95;;;20.00;53.20;;;;;;5031794;28;20033;-59
2022/01/15 03:52:31;;;;;;;3.15;1.10;;;20.00;53.10;;;;;;5032324;28;20041;-59
2022/01/15 03:54:56;;;;;;;2.50;1.13;;;20.00;53.10;;;;;;5015065;28;20393;-59
2022/01/15 03:57:22;;;;;;;1.98;0.93;;;20.00;53.10;;;;;;5031567;28;20048;-59
2022/01/15 03:59:47;;;;;;;3.55;1.50;;;20.00;53.10;;;;;;5032255;28;20523;-59
2022/01/15 04:02:13;;;;;;;2.22;1.15;;;20.00;53.10;;;;;;5032164;28;20049;-59
2022/01/15 04:04:38;;;;;;;2.45;1.10;;;20.00;53.10;;;;;;5014077;28;20041;-59
2022/01/15 04:07:04;;;;;;;2.25;0.98;;;20.00;53.10;;;;;;5032264;28;20038;-59
2022/01/15 04:09:29;;;;;;;2.17;1.02;;;20.00;53.10;;;;;;5032149;28;20077;-59
2022/01/15 04:11:55;;;;;;;2.15;0.80;;;20.00;53.10;;;;;;5031663;28;20041;-60
2022/01/15 04:14:20;;;;;;;1.98;0.90;;;20.10;53.10;;;;;;5032198;28;20045;-59
2022/01/15 04:16:46;;;;;;;1.92;1.02;;;20.10;53.10;;;;;;5032577;28;20049;-59
2022/01/15 04:19:11;;;;;;;2.20;0.80;;;20.00;53.00;;;;;;5031186;28;20076;-59
2022/01/15 04:21:37;;;;;;;1.40;0.68;;;20.10;53.00;;;;;;5032352;28;20037;-59
2022/01/15 04:24:03;;;;;;;1.75;0.85;;;20.10;53.10;;;;;;5031492;28;20049;-59
2022/01/15 04:26:28;;;;;;;2.33;0.90;;;20.10;53.10;;;;;;5031820;28;20033;-59
2022/01/15 04:28:54;;;;;;;2.10;0.93;;;20.10;53.00;;;;;;5031448;28;20042;-59
2022/01/15 04:31:20;;;;;;;1.80;0.80;;;20.10;53.00;;;;;;5031084;28;20803;-59
2022/01/15 04:33:46;;;;;;;2.90;0.93;;;20.10;53.00;;;;;;5032184;28;20053;-58
2022/01/15 04:36:11;;;;;;;1.85;0.88;;;20.10;53.00;;;;;;5031798;28;20077;-59
2022/01/15 04:38:38;;;;;;;2.75;1.00;;;20.10;53.00;;;;;;5031368;28;20045;-59
2022/01/15 04:41:07;;;;;;;1.80;0.80;;;20.10;53.00;;;;;;5034820;28;20464;-59
2022/01/15 04:43:33;;;;;;;2.88;0.88;;;20.10;53.00;;;;;;5035631;28;20064;-59
2022/01/15 04:45:58;;;;;;;1.73;0.80;;;20.10;53.00;;;;;;5034891;28;20045;-59
2022/01/15 04:48:24;;;;;;;2.30;0.90;;;20.20;53.00;;;;;;5035281;28;20047;-59
2022/01/15 04:50:50;;;;;;;2.05;0.80;;;20.20;53.00;;;;;;5035836;28;20132;-60
2022/01/15 04:53:15;;;;;;;1.52;0.70;;;20.20;53.00;;;;;;5034775;28;20068;-59
2022/01/15 04:55:41;;;;;;;2.55;1.00;;;20.20;53.00;;;;;;5017834;28;20037;-59
2022/01/15 04:58:07;;;;;;;1.23;0.63;;;20.20;53.00;;;;;;5035452;28;20056;-59
2022/01/15 05:00:32;;;;;;;2.30;0.80;;;20.20;53.00;;;;;;5034664;28;20052;-59
2022/01/15 05:02:58;;;;;;;2.25;0.70;;;20.20;53.00;;;;;;5035229;28;20041;-59
2022/01/15 05:05:24;;;;;;;2.05;0.80;;;20.20;53.00;;;;;;5034666;28;20404;-59
2022/01/15 05:07:52;;;;;;;1.92;0.70;;;20.20;53.00;;;;;;5034649;28;20041;-59
2022/01/15 05:10:20;;;;;;;1.70;0.70;;;20.20;52.90;;;;;;5033601;28;20049;-59
2022/01/15 05:12:48;;;;;;;2.13;0.70;;;20.20;53.00;;;;;;5035203;28;20037;-59
2022/01/15 05:15:14;;;;;;;2.22;0.70;;;20.20;52.90;;;;;;5034201;28;20528;-59
2022/01/15 05:17:40;;;;;;;1.83;0.80;;;20.20;52.90;;;;;;5035318;28;20037;-59
2022/01/15 05:20:06;;;;;;;1.60;0.70;;;20.20;52.90;;;;;;5035157;28;20045;-59
2022/01/15 05:22:33;;;;;;;1.48;0.60;;;20.20;52.90;;;;;;5034145;28;20244;-59
2022/01/15 05:24:59;;;;;;;1.50;0.55;;;20.20;52.90;;;;;;5034946;28;20092;-59
2022/01/15 05:27:24;;;;;;;1.60;0.50;;;20.30;52.90;;;;;;5033994;28;20038;-59
2022/01/15 05:29:50;;;;;;;1.50;0.68;;;20.30;52.90;;;;;;5034786;28;20045;-59
2022/01/15 05:32:18;;;;;;;1.63;0.80;;;20.20;52.80;;;;;;5034879;28;20041;-59
2022/01/15 05:34:44;;;;;;;1.20;0.60;;;20.20;52.90;;;;;;5034197;28;20501;-59
2022/01/15 05:37:10;;;;;;;1.10;0.50;;;20.20;52.80;;;;;;5035078;28;20073;-59
2022/01/15 05:39:35;;;;;;;1.20;0.60;;;20.20;52.80;;;;;;5034488;28;20401;-59
2022/01/15 05:42:01;;;;;;;1.73;0.63;;;20.30;52.90;;;;;;5033659;28;20045;-59
2022/01/15 05:44:26;;;;;;;1.05;0.52;;;20.30;52.90;;;;;;5034231;28;20057;-59
2022/01/15 05:46:52;;;;;;;1.30;0.70;;;20.30;52.90;;;;;;5035057;28;20041;-59
2022/01/15 05:49:18;;;;;;;1.08;0.50;;;20.30;52.80;;;;;;5033923;28;20052;-59
2022/01/15 05:51:43;;;;;;;1.77;0.50;;;20.30;52.80;;;;;;5033319;28;20438;-59
2022/01/15 05:54:10;;;;;;;0.90;0.50;;;20.30;52.80;;;;;;5034514;28;20103;-59
2022/01/15 05:56:36;;;;;;;1.13;0.50;;;20.30;52.80;;;;;;5033548;28;20091;-59
2022/01/15 05:59:02;;;;;;;1.70;0.60;;;20.30;52.80;;;;;;5034214;28;20076;-59
2022/01/15 06:01:28;;;;;;;1.70;0.60;;;20.30;52.80;;;;;;5034004;28;20477;-59
2022/01/15 06:03:53;;;;;;;1.00;0.50;;;20.30;52.80;;;;;;5033699;28;20107;-59
2022/01/15 06:06:19;;;;;;;1.38;0.40;;;20.30;52.80;;;;;;5033928;28;20461;-59
2022/01/15 06:08:44;;;;;;;1.02;0.50;;;20.30;52.80;;;;;;5034455;28;20049;-59
2022/01/15 06:11:11;;;;;;;1.10;0.50;;;20.30;52.70;;;;;;5033424;28;20379;-59
2022/01/15 06:13:37;;;;;;;1.38;0.68;;;20.30;52.70;;;;;;5034182;28;20045;-59
2022/01/15 06:16:04;;;;;;;1.08;0.52;;;20.30;52.70;;;;;;5034270;28;20060;-59
2022/01/15 06:18:29;;;;;;;1.65;0.63;;;20.30;52.70;;;;;;5033104;28;20456;-59
2022/01/15 06:20:55;;;;;;;1.08;0.40;;;20.30;52.70;;;;;;5034234;28;20077;-59
2022/01/15 06:23:20;;;;;;;1.50;0.50;;;20.30;52.70;;;;;;5033903;28;20158;-59
2022/01/15 06:25:46;;;;;;;1.00;0.50;;;20.30;52.70;;;;;;5015482;28;20050;-59
2022/01/15 06:28:11;;;;;;;0.90;0.40;;;20.40;52.70;;;;;;5033882;28;20085;-59
2022/01/15 06:30:37;;;;;;;1.60;0.70;;;20.30;52.70;;;;;;5032916;28;20044;-59
2022/01/15 06:33:02;;;;;;;2.35;0.60;;;20.30;52.60;;;;;;5033902;28;20041;-59
2022/01/15 06:35:28;;;;;;;0.95;0.50;;;20.40;52.70;;;;;;5033639;28;20050;-59
2022/01/15 06:37:54;;;;;;;0.80;0.50;;;20.40;52.70;;;;;;5032844;28;20451;-59
2022/01/15 06:40:20;;;;;;;0.75;0.40;;;20.30;52.60;;;;;;5033106;28;20053;-59
2022/01/15 06:42:45;;;;;;;0.85;0.60;;;20.40;52.70;;;;;;5033468;28;20393;-59
2022/01/15 06:45:11;;;;;;;1.00;0.40;;;20.40;52.70;;;;;;5032539;28;20048;-59
2022/01/15 06:47:37;;;;;;;0.90;0.40;;;20.40;52.60;;;;;;5033234;28;20041;-59
2022/01/15 06:50:04;;;;;;;0.85;0.40;;;20.40;52.60;;;;;;5033672;28;20046;-59
2022/01/15 06:52:34;;;;;;;1.08;0.47;;;20.40;52.60;;;;;;5032476;28;20034;-59
2022/01/15 06:55:00;;;;;;;0.57;0.30;;;20.40;52.60;;;;;;5033547;28;20041;-59
2022/01/15 06:57:26;;;;;;;1.20;0.52;;;20.40;52.70;;;;;;5033156;28;20179;-59
2022/01/15 06:59:52;;;;;;;0.50;0.30;;;20.40;52.60;;;;;;5031936;28;20060;-59
2022/01/15 07:02:18;;;;;;;0.90;0.50;;;20.40;52.60;;;;;;5032782;28;20424;-59
2022/01/15 07:04:43;;;;;;;1.30;0.50;;;20.40;52.60;;;;;;5033479;28;20053;-59
2022/01/15 07:07:09;;;;;;;1.10;0.50;;;20.40;52.50;;;;;;5032520;28;20146;-59
2022/01/15 07:09:35;;;;;;;0.98;0.50;;;20.40;52.50;;;;;;5033089;28;20052;-59
2022/01/15 07:12:01;;;;;;;2.83;0.50;;;20.50;52.50;;;;;;5033074;28;20037;-59
2022/01/15 07:14:27;;;;;;;1.70;0.60;;;20.50;52.50;;;;;;5013966;28;20400;-59
2022/01/15 07:16:52;;;;;;;2.38;0.50;;;20.50;52.40;;;;;;5015491;28;20485;-59
2022/01/15 07:19:18;;;;;;;0.90;0.47;;;20.50;52.40;;;;;;5032762;28;20042;-59
2022/01/15 07:21:43;;;;;;;1.10;0.65;;;20.50;52.40;;;;;;5032263;28;20053;-59
2022/01/15 07:24:09;;;;;;;0.75;0.40;;;20.50;52.40;;;;;;5032773;28;20041;-59
2022/01/15 07:26:34;;;;;;;1.42;0.47;;;20.50;52.40;;;;;;5032581;28;20101;-59
2022/01/15 07:29:00;;;;;;;1.90;0.77;;;20.50;52.40;;;;;;5031935;28;20069;-59
2022/01/15 07:31:25;;;;;;;4.70;0.85;;;20.50;52.40;;;;;;5032732;28;20037;-59
2022/01/15 07:33:51;;;;;;;3.83;0.60;;;20.50;52.40;;;;;;5032665;28;20503;-59
2022/01/15 07:36:16;;;;;;;1.15;0.63;;;20.60;52.40;;;;;;5031942;28;20041;-59
2022/01/15 07:38:42;;;;;;;1.65;0.60;;;20.60;53.10;;;;;;5015320;28;20077;-59
2022/01/15 07:41:12;;;;;;;1.33;0.63;;;20.60;52.40;;;;;;5013992;28;20478;-59
2022/01/15 07:43:38;;;;;;;3.67;0.47;;;20.60;52.40;;;;;;5032673;28;20046;-59
2022/01/15 07:46:03;;;;;;;1.67;0.40;;;20.60;52.50;;;;;;5032692;28;20057;-59
2022/01/15 07:48:29;;;;;;;5.53;0.70;;;20.60;52.50;;;;;;5030049;28;20050;-59
2022/01/15 07:50:54;;;;;;;5.18;0.80;;;20.60;52.60;;;;;;5032805;28;20041;-58
2022/01/15 07:53:20;;;;;;;1.02;0.50;;;20.60;52.70;;;;;;5031621;28;20482;-59
2022/01/15 07:55:45;;;;;;;3.25;1.00;;;20.60;52.80;;;;;;5016950;28;20044;-59
2022/01/15 07:58:11;;;;;;;2.05;0.60;;;20.60;53.00;;;;;;5032315;28;20049;-60
2022/01/15 08:00:36;;;;;;;1.95;0.47;;;20.60;53.00;;;;;;5032436;28;20049;-59
2022/01/15 08:03:02;;;;;;;2.97;0.60;;;20.60;53.10;;;;;;5031671;28;20053;-60
2022/01/15 08:05:27;;;;;;;2.90;0.70;;;20.60;53.20;;;;;;5032127;28;20199;-59
2022/01/15 08:07:53;;;;;;;1.65;0.65;;;20.70;53.30;;;;;;5014970;28;20045;-59
2022/01/15 08:10:18;;;;;;;3.35;0.70;;;20.60;53.20;;;;;;5031102;28;20072;-58
2022/01/15 08:12:49;;;;;;;0.80;0.50;;;20.70;53.30;;;;;;5028917;28;20042;-58
2022/01/15 08:15:15;;;;;;;3.63;0.63;;;20.70;53.40;;;;;;5033792;28;20037;-59
2022/01/15 08:17:40;;;;;;;2.05;0.60;;;20.70;53.40;;;;;;5035637;28;20045;-59
2022/01/15 08:20:06;;;;;;;2.75;0.63;;;20.70;53.40;;;;;;5035946;28;20046;-59
2022/01/15 08:22:32;;;;;;;2.80;0.60;;;20.70;53.40;;;;;;5036025;28;20046;-59
2022/01/15 08:24:57;;;;;;;1.63;0.60;;;20.70;53.50;;;;;;5035390;28;20156;-59
2022/01/15 08:27:23;;;;;;;1.45;0.55;;;20.70;53.50;;;;;;5035932;28;20072;-59
2022/01/15 08:29:48;;;;;;;1.92;0.60;;;20.70;53.60;;;;;;5036169;28;20481;-59
2022/01/15 08:32:14;;;;;;;2.50;0.60;;;20.70;53.60;;;;;;5028941;28;20042;-58
2022/01/15 08:34:39;;;;;;;1.58;0.52;;;20.70;53.60;;;;;;5026097;28;20179;-58
2022/01/15 08:37:05;;;;;;;1.33;0.50;;;20.70;53.70;;;;;;5026292;28;20120;-58
2022/01/15 08:39:31;;;;;;;1.52;0.50;;;20.80;53.80;;;;;;5023337;28;20045;-59
2022/01/15 08:41:56;;;;;;;2.42;0.50;;;20.80;53.90;;;;;;5025822;28;20033;-59
2022/01/15 08:44:24;;;;;;;2.58;0.60;;;20.80;54.00;;;;;;5027906;28;20048;-58
2022/01/15 08:46:51;;;;;;;;;;;20.80;53.90;;;;;;5036315;28;20046;-58
2022/01/15 08:49:17;;;;;;;1.35;0.60;;;20.80;53.90;;;;;;5035637;28;19944;-58
2022/01/15 08:51:43;;;;;;;1.42;0.52;;;20.80;53.90;;;;;;5028251;28;20052;-60
2022/01/15 08:54:08;;;;;;;1.73;0.60;;;20.80;53.90;;;;;;5027566;28;20029;-59
2022/01/15 08:56:34;;;;;;;2.35;0.63;;;20.80;53.90;;;;;;5035167;28;20588;-59
2022/01/15 08:58:59;;;;;;;2.30;0.85;;;20.80;53.70;;;;;;5016842;28;20140;-60
2022/01/15 09:01:25;;;;;;;2.95;1.00;;;20.80;53.70;;;;;;5035590;28;20437;-58
2022/01/15 09:03:50;;;;;;;2.95;0.70;;;20.80;53.60;;;;;;5035432;28;20045;-59
2022/01/15 09:06:16;;;;;;;2.17;0.68;;;20.80;53.70;;;;;;5034445;28;20042;-60
2022/01/15 09:08:43;;;;;;;1.35;0.73;;;20.90;53.90;;;;;;5035273;28;20052;-60
2022/01/15 09:11:08;;;;;;;1.08;0.50;;;20.90;54.00;;;;;;5035067;28;20091;-60
2022/01/15 09:13:34;;;;;;;2.45;0.80;;;20.90;54.00;;;;;;5034216;28;20045;-59
2022/01/15 09:16:00;;;;;;;1.90;0.60;;;20.90;54.00;;;;;;5034971;28;20037;-59
2022/01/15 09:18:26;;;;;;;1.77;0.60;;;20.90;54.00;;;;;;5034902;28;20042;-60
2022/01/15 09:20:51;;;;;;;1.13;0.65;;;20.90;54.00;;;;;;5034798;28;20115;-60
2022/01/15 09:23:17;;;;;;;1.88;0.60;;;20.90;53.90;;;;;;5034668;28;20501;-59
2022/01/15 09:25:42;;;;;;;1.42;0.60;;;20.90;53.80;;;;;;5034667;28;20049;-60
2022/01/15 09:30:52;;;;;;;1.13;0.60;;;20.90;53.60;;;;;;5035108;28;20054;-59
2022/01/15 09:33:17;;;;;;;1.45;0.70;;;20.90;53.60;;;;;;5034701;28;20060;-59
2022/01/15 09:35:43;;;;;;;1.95;0.60;;;20.90;53.50;;;;;;5034232;28;20409;-59
2022/01/15 09:38:09;;;;;;;1.52;0.70;;;20.90;53.50;;;;;;5034882;28;20064;-59
2022/01/15 09:40:35;;;;;;;1.45;0.50;;;20.90;53.50;;;;;;5033840;28;20413;-59
2022/01/15 09:43:00;;;;;;;0.90;0.50;;;20.90;53.50;;;;;;5034663;28;20042;-59
2022/01/15 09:45:26;;;;;;;1.17;0.50;;;20.90;53.30;;;;;;5024853;28;20041;-61
2022/01/15 09:47:55;;;;;;;2.97;0.75;;;20.90;53.40;;;;;;5013311;28;20070;-59
2022/01/15 09:50:21;;;;;;;1.13;0.73;;;20.90;53.50;;;;;;5013727;28;20053;-61
2022/01/15 09:52:47;;;;;;;1.52;0.43;;;20.90;53.60;;;;;;5014639;28;20042;-62
2022/01/15 09:55:13;;;;;;;1.73;0.47;;;21.00;53.60;;;;;;5014466;28;20096;-62
2022/01/15 09:57:39;;;;;;;1.92;0.60;;;21.00;53.50;;;;;;5013901;28;20437;-62
2022/01/15 10:00:07;;;;;;;1.38;0.60;;;20.90;53.40;;;;;;5013571;28;20057;-61
2022/01/15 10:02:33;;;;;;;1.25;0.55;;;21.00;53.40;;;;;;5013665;28;20053;-62
2022/01/15 10:04:59;;;;;;;1.52;0.60;;;21.00;53.40;;;;;;5014878;28;20053;-63
2022/01/15 10:07:27;;;;;;;0.68;0.40;;;21.00;53.30;;;;;;5013819;28;20038;-62
2022/01/15 10:09:53;;;;;;;1.13;0.40;;;21.00;53.30;;;;;;5013885;28;20046;-61
2022/01/15 10:12:28;;;;;;;2.90;0.90;;;21.00;53.20;;;;;;5013972;28;20045;-60
2022/01/15 10:14:58;;;;;;;1.33;0.60;;;21.00;53.30;;;;;;5013930;28;20139;-61
2022/01/15 10:17:24;;;;;;;2.28;0.88;;;21.00;53.40;;;;;;5011996;28;20524;-59
2022/01/15 10:19:50;;;;;;;3.08;0.95;;;21.00;53.50;;;;;;5022035;28;20077;-60
2022/01/15 10:22:20;;;;;;;2.70;1.10;;;21.00;53.50;;;;;;5020025;28;20096;-60
2022/01/15 10:24:55;;;;;;;3.00;1.00;;;21.00;53.70;;;;;;5019006;28;20049;-60
2022/01/15 10:27:31;;;;;;;2.83;0.90;;;21.00;53.70;;;;;;5027001;28;20038;-61
2022/01/15 10:30:21;;;;;;;2.28;1.20;;;21.00;53.90;;;;;;5006577;28;20033;-60
2022/01/15 10:32:54;;;;;;;3.10;1.00;;;21.10;53.90;;;;;;5021160;28;20104;-60
2022/01/15 10:35:20;;;;;;;3.42;0.93;;;21.10;53.90;;;;;;5012902;28;20049;-60
2022/01/15 10:37:56;;;;;;;2.33;1.05;;;21.10;53.90;;;;;;5012219;28;20038;-60
2022/01/15 10:40:38;;;;;;;3.58;1.20;;;21.10;53.90;;;;;;5013348;28;20482;-60
2022/01/15 10:43:03;;;;;;;4.00;1.25;;;21.10;53.90;;;;;;5016232;28;20037;-60
2022/01/15 10:45:31;;;;;;;4.07;1.45;;;21.10;53.90;;;;;;5031961;28;20048;-59
2022/01/15 10:47:57;;;;;;;3.37;1.30;;;21.10;53.80;;;;;;5032287;28;20056;-61
2022/01/15 10:50:27;;;;;;;4.07;1.30;;;21.10;53.80;;;;;;5032853;28;20045;-60
2022/01/15 10:52:53;;;;;;;5.35;1.20;;;21.10;53.80;;;;;;5032511;28;20485;-60
2022/01/15 10:55:26;;;;;;;3.15;1.20;;;21.10;53.80;;;;;;5032191;28;20044;-60
2022/01/15 10:57:57;;;;;;;2.30;1.20;;;21.10;53.80;;;;;;5032127;28;20051;-60
2022/01/15 11:00:23;;;;;;;3.17;1.35;;;21.10;53.80;;;;;;5033075;28;20081;-59
2022/01/15 11:02:59;;;;;;;4.78;1.38;;;21.10;53.80;;;;;;5033179;28;20477;-61
2022/01/15 11:05:31;;;;;;;3.35;1.30;;;21.20;53.80;;;;;;5032200;28;20046;-60
2022/01/15 11:08:13;;;;;;;4.10;1.23;;;21.20;53.80;;;;;;5033410;28;20048;-60
2022/01/15 11:10:52;;;;;;;3.22;1.27;;;21.20;53.80;;;;;;5033480;28;20124;-60
2022/01/15 11:13:21;;;;;;;2.67;1.30;;;21.20;53.80;;;;;;5031835;28;20400;-60
2022/01/15 11:15:48;;;;;;;3.78;1.25;;;21.20;53.70;;;;;;5032744;28;20048;-60
2022/01/15 11:18:21;;;;;;;2.67;1.10;;;21.20;53.70;;;;;;5032560;28;20042;-60
2022/01/15 11:20:49;;;;;;;2.60;1.13;;;21.20;53.70;;;;;;5015829;28;20046;-60
2022/01/15 11:23:14;;;;;;;2.53;1.05;;;21.20;53.70;;;;;;5032538;28;20057;-60
2022/01/15 11:25:42;;;;;;;2.70;1.02;;;21.30;53.70;;;;;;5032977;28;20116;-61
2022/01/15 11:28:07;;;;;;;2.00;1.20;;;21.20;53.50;;;;;;5032091;28;20064;-60
2022/01/15 11:30:33;;;;;;;2.00;1.15;;;21.20;53.50;;;;;;5015013;28;20389;-62
2022/01/15 11:32:59;;;;;;;3.20;1.33;;;21.30;53.40;;;;;;5034806;28;20083;-63
2022/01/15 11:35:38;;;;;;;2.42;0.98;;;21.30;53.30;;;;;;5013407;28;20124;-60
2022/01/15 11:38:04;;;;;;;3.30;1.25;;;21.30;53.30;;;;;;5032551;28;20120;-60
2022/01/15 11:40:40;;;;;;;2.55;1.30;;;21.30;53.40;;;;;;5031804;28;20128;-60
2022/01/15 11:43:24;;;;;;;3.25;1.20;;;21.30;53.50;;;;;;5027999;28;20410;-59
2022/01/15 11:45:57;;;;;;;3.22;1.33;;;21.30;53.50;;;;;;5018798;28;20508;-60
2022/01/15 11:48:23;;;;;;;2.72;1.10;;;21.30;53.50;;;;;;5020941;28;20037;-60
2022/01/15 11:51:13;;;;;;;3.03;1.40;;;21.30;54.10;;;;;;5002944;28;20054;-60
2022/01/15 11:53:48;;;;;;;3.58;1.10;;;21.30;53.30;;;;;;5012792;28;20540;-60
2022/01/15 11:56:21;;;;;;;2.05;0.95;;;21.30;53.30;;;;;;5012004;28;20108;-60
2022/01/15 11:58:46;;;;;;;2.13;0.93;;;21.30;53.30;;;;;;5012497;28;20069;-59
2022/01/15 12:01:35;;;;;;;2.40;1.10;;;21.30;53.20;;;;;;5011819;28;20050;-60
2022/01/15 12:04:32;;;;;;;3.47;1.17;;;21.30;53.10;;;;;;5002920;28;20587;-60
2022/01/15 12:07:09;;;;;;;2.83;1.30;;;21.30;53.10;;;;;;5012078;28;20418;-59
2022/01/15 12:09:39;;;;;;;2.23;1.13;;;21.30;53.00;;;;;;5011630;28;20417;-59
2022/01/15 12:12:31;;;;;;;3.08;1.10;;;21.30;53.10;;;;;;5012973;28;20065;-59
2022/01/15 12:14:56;;;;;;;3.67;1.20;;;21.20;53.20;;;;;;5012029;28;20049;-60
2022/01/15 12:17:26;;;;;;;2.50;1.25;;;21.20;53.30;;;;;;5011584;28;20386;-60
2022/01/15 12:19:52;;;;;;;2.40;1.10;;;21.20;53.30;;;;;;5012585;28;20493;-59
2022/01/15 12:22:51;;;;;;;2.35;0.90;;;21.20;53.40;;;;;;5011724;28;20045;-59
2022/01/15 12:25:17;;;;;;;3.10;1.10;;;21.30;53.50;;;;;;5012241;28;20050;-59
2022/01/15 12:27:47;;;;;;;2.35;1.02;;;21.20;53.40;;;;;;5012583;28;20121;-59
2022/01/15 12:30:15;;;;;;;2.17;1.05;;;21.30;53.40;;;;;;5011403;28;20061;-59
2022/01/15 12:32:42;;;;;;;1.90;0.90;;;21.30;53.50;;;;;;5012672;28;20088;-59
2022/01/15 12:35:14;;;;;;;1.90;1.40;;;21.30;53.50;;;;;;5012382;28;20474;-59
2022/01/15 12:37:53;;;;;;;2.20;1.02;;;21.30;53.50;;;;;;5004962;28;20512;-59
2022/01/15 12:40:20;;;;;;;2.67;0.80;;;21.30;53.40;;;;;;5031534;28;20050;-59
2022/01/15 12:42:56;;;;;;;3.60;1.13;;;21.30;53.50;;;;;;5032028;28;20045;-59
2022/01/15 12:45:22;;;;;;;5.57;1.30;;;21.30;53.50;;;;;;5030837;28;20052;-59
2022/01/15 12:47:47;;;;;;;1.48;0.90;;;21.30;53.50;;;;;;5032224;28;20041;-59
2022/01/15 12:50:13;;;;;;;3.05;1.15;;;21.30;53.40;;;;;;5031742;28;20038;-59
2022/01/15 12:52:39;;;;;;;1.80;0.82;;;21.30;53.40;;;;;;5031198;28;20132;-59
2022/01/15 12:55:05;;;;;;;1.88;1.10;;;21.30;53.20;;;;;;5032286;28;20041;-59
2022/01/15 12:57:37;;;;;;;1.35;0.93;;;21.30;52.80;;;;;;5030942;28;20156;-59
2022/01/15 13:00:11;;;;;;;3.22;0.90;;;21.30;52.70;;;;;;5031378;28;20271;-60
2022/01/15 13:02:36;;;;;;;2.30;0.90;;;21.30;52.70;;;;;;5035041;28;20069;-59
2022/01/15 13:05:03;;;;;;;3.40;0.80;;;21.30;53.40;;;;;;5032153;28;20530;-59
2022/01/15 13:07:51;;;;;;;3.40;0.70;;;21.30;52.80;;;;;;5027083;28;20046;-59
2022/01/15 13:10:27;;;;;;;3.13;0.90;;;21.30;52.90;;;;;;5012647;28;20041;-59